createdAt,value
2018-03-15T00:00:11.000Z,29
2018-03-15T00:01:11.000Z,29
2018-03-15T00:03:11.000Z,29
2018-03-15T00:04:11.000Z,29
2018-03-15T00:05:11.000Z,29
2018-03-15T00:06:11.000Z,29
2018-03-15T00:07:11.000Z,29
2018-03-15T00:08:11.000Z,29
2018-03-15T00:09:11.000Z,29
2018-03-15T00:10:11.000Z,29
2018-03-15T00:11:11.000Z,29
2018-03-15T00:12:11.000Z,29
2018-03-15T00:13:11.000Z,29
2018-03-15T00:14:11.000Z,29
2018-03-15T00:15:11.000Z,29
2018-03-15T00:16:11.000Z,29
2018-03-15T00:17:11.000Z,29
2018-03-15T00:18:11.000Z,29
2018-03-15T00:19:11.000Z,29
2018-03-15T00:20:11.000Z,29
2018-03-15T00:22:11.000Z,29
2018-03-15T00:23:11.000Z,29
2018-03-15T00:24:11.000Z,29
2018-03-15T00:25:11.000Z,29
2018-03-15T00:26:11.000Z,29
2018-03-15T00:27:11.000Z,29
2018-03-15T00:28:11.000Z,29
2018-03-15T00:30:11.000Z,29
2018-03-15T00:31:11.000Z,29
2018-03-15T00:32:11.000Z,29
2018-03-15T00:33:11.000Z,29
2018-03-15T00:34:11.000Z,29
2018-03-15T00:35:11.000Z,29
2018-03-15T00:36:11.000Z,29
2018-03-15T00:37:11.000Z,29
2018-03-15T00:38:11.000Z,29
2018-03-15T00:39:11.000Z,29
2018-03-15T00:40:11.000Z,29
2018-03-15T00:41:11.000Z,29
2018-03-15T00:42:11.000Z,29
2018-03-15T00:43:11.000Z,29
2018-03-15T00:44:11.000Z,29
2018-03-15T00:45:11.000Z,29
2018-03-15T00:46:11.000Z,29
2018-03-15T00:47:11.000Z,29
2018-03-15T00:48:11.000Z,29
2018-03-15T00:49:11.000Z,29
2018-03-15T00:50:11.000Z,29
2018-03-15T00:51:11.000Z,29
2018-03-15T00:52:11.000Z,29
2018-03-15T00:53:11.000Z,29
2018-03-15T00:54:11.000Z,29
2018-03-15T00:55:11.000Z,29
2018-03-15T00:56:11.000Z,29
2018-03-15T00:57:11.000Z,29
2018-03-15T00:59:11.000Z,29
2018-03-15T01:00:11.000Z,29
2018-03-15T01:01:11.000Z,29
2018-03-15T01:02:11.000Z,29
2018-03-15T01:03:11.000Z,29
2018-03-15T01:04:11.000Z,29
2018-03-15T01:05:11.000Z,29
2018-03-15T01:06:11.000Z,29
2018-03-15T01:07:11.000Z,29
2018-03-15T01:09:11.000Z,29
2018-03-15T01:10:11.000Z,29
2018-03-15T01:11:11.000Z,29
2018-03-15T01:12:11.000Z,29
2018-03-15T01:13:11.000Z,29
2018-03-15T01:14:11.000Z,29
2018-03-15T01:15:11.000Z,29
2018-03-15T01:17:11.000Z,29
2018-03-15T01:18:11.000Z,29
2018-03-15T01:19:11.000Z,29
2018-03-15T01:20:11.000Z,29
2018-03-15T01:21:11.000Z,29
2018-03-15T01:22:11.000Z,29
2018-03-15T01:23:11.000Z,29
2018-03-15T01:24:11.000Z,29
2018-03-15T01:25:11.000Z,29
2018-03-15T01:26:11.000Z,29
2018-03-15T01:27:11.000Z,29
2018-03-15T01:28:11.000Z,29
2018-03-15T01:29:11.000Z,29
2018-03-15T01:30:11.000Z,29
2018-03-15T01:31:11.000Z,29
2018-03-15T01:32:11.000Z,29
2018-03-15T01:33:11.000Z,29
2018-03-15T01:34:11.000Z,29
2018-03-15T01:35:11.000Z,29
2018-03-15T01:36:11.000Z,29
2018-03-15T01:38:11.000Z,29
2018-03-15T01:39:11.000Z,29
2018-03-15T01:40:11.000Z,29
2018-03-15T01:41:11.000Z,29
2018-03-15T01:42:11.000Z,29
2018-03-15T01:43:11.000Z,29
2018-03-15T01:44:11.000Z,29
2018-03-15T01:45:11.000Z,29
2018-03-15T01:46:11.000Z,29
2018-03-15T01:47:11.000Z,29
2018-03-15T01:48:11.000Z,29
2018-03-15T01:49:11.000Z,29
2018-03-15T01:50:11.000Z,29
2018-03-15T01:51:11.000Z,29
2018-03-15T01:53:11.000Z,29
2018-03-15T01:54:11.000Z,29
2018-03-15T01:56:11.000Z,29
2018-03-15T01:57:11.000Z,29
2018-03-15T01:59:11.000Z,29
2018-03-15T02:00:11.000Z,29
2018-03-15T02:01:11.000Z,29
2018-03-15T02:02:11.000Z,29
2018-03-15T02:03:11.000Z,29
2018-03-15T02:04:11.000Z,29
2018-03-15T02:06:11.000Z,29
2018-03-15T02:07:11.000Z,29
2018-03-15T02:08:11.000Z,29
2018-03-15T02:09:11.000Z,29
2018-03-15T02:10:11.000Z,29
2018-03-15T02:11:11.000Z,29
2018-03-15T02:13:11.000Z,29
2018-03-15T02:14:11.000Z,29
2018-03-15T02:15:11.000Z,29
2018-03-15T02:16:11.000Z,29
2018-03-15T02:17:11.000Z,29
2018-03-15T02:18:11.000Z,29
2018-03-15T02:19:11.000Z,29
2018-03-15T02:21:11.000Z,29
2018-03-15T02:22:11.000Z,29
2018-03-15T02:24:11.000Z,29
2018-03-15T02:25:11.000Z,29
2018-03-15T02:26:11.000Z,29
2018-03-15T02:27:11.000Z,29
2018-03-15T02:28:11.000Z,29
2018-03-15T02:29:11.000Z,29
2018-03-15T02:30:11.000Z,29
2018-03-15T02:31:11.000Z,29
2018-03-15T02:32:11.000Z,29
2018-03-15T02:33:11.000Z,29
2018-03-15T02:34:11.000Z,29
2018-03-15T02:35:11.000Z,29
2018-03-15T02:36:11.000Z,29
2018-03-15T02:37:11.000Z,29
2018-03-15T02:38:11.000Z,29
2018-03-15T02:39:11.000Z,29
2018-03-15T02:40:11.000Z,29
2018-03-15T02:42:11.000Z,29
2018-03-15T02:43:11.000Z,29
2018-03-15T02:45:11.000Z,29
2018-03-15T02:46:11.000Z,29
2018-03-15T02:47:11.000Z,29
2018-03-15T02:48:11.000Z,29
2018-03-15T02:49:11.000Z,29
2018-03-15T02:50:11.000Z,29
2018-03-15T02:51:11.000Z,29
2018-03-15T02:52:11.000Z,29
2018-03-15T02:53:11.000Z,29
2018-03-15T02:54:11.000Z,29
2018-03-15T02:55:11.000Z,29
2018-03-15T02:56:11.000Z,29
2018-03-15T02:57:11.000Z,29
2018-03-15T02:58:11.000Z,29
2018-03-15T02:59:11.000Z,29
2018-03-15T03:00:11.000Z,29
2018-03-15T03:01:11.000Z,29
2018-03-15T03:03:11.000Z,29
2018-03-15T03:04:11.000Z,29
2018-03-15T03:05:11.000Z,29
2018-03-15T03:06:11.000Z,29
2018-03-15T03:07:11.000Z,29
2018-03-15T03:08:11.000Z,29
2018-03-15T03:09:11.000Z,29
2018-03-15T03:11:11.000Z,29
2018-03-15T03:12:11.000Z,29
2018-03-15T03:13:11.000Z,29
2018-03-15T03:14:11.000Z,29
2018-03-15T03:15:11.000Z,29
2018-03-15T03:17:11.000Z,29
2018-03-15T03:18:11.000Z,29
2018-03-15T03:19:11.000Z,29
2018-03-15T03:20:11.000Z,29
2018-03-15T03:21:11.000Z,29
2018-03-15T03:22:11.000Z,29
2018-03-15T03:23:11.000Z,29
2018-03-15T03:24:11.000Z,29
2018-03-15T03:25:11.000Z,29
2018-03-15T03:26:11.000Z,29
2018-03-15T03:27:11.000Z,29
2018-03-15T03:28:11.000Z,29
2018-03-15T03:29:11.000Z,29
2018-03-15T03:30:11.000Z,29
2018-03-15T03:31:11.000Z,29
2018-03-15T03:32:11.000Z,29
2018-03-15T03:33:11.000Z,29
2018-03-15T03:34:11.000Z,29
2018-03-15T03:35:11.000Z,29
2018-03-15T03:36:11.000Z,29
2018-03-15T03:37:11.000Z,29
2018-03-15T03:38:11.000Z,29
2018-03-15T03:39:11.000Z,29
2018-03-15T03:40:11.000Z,29
2018-03-15T03:42:11.000Z,29
2018-03-15T03:43:11.000Z,29
2018-03-15T03:44:11.000Z,29
2018-03-15T03:45:11.000Z,29
2018-03-15T03:46:11.000Z,29
2018-03-15T03:47:11.000Z,29
2018-03-15T03:48:11.000Z,28
2018-03-15T03:50:11.000Z,28
2018-03-15T03:51:11.000Z,29
2018-03-15T03:52:11.000Z,29
2018-03-15T03:53:11.000Z,29
2018-03-15T03:54:11.000Z,29
2018-03-15T03:55:11.000Z,29
2018-03-15T03:56:11.000Z,29
2018-03-15T03:57:11.000Z,29
2018-03-15T03:58:11.000Z,29
2018-03-15T03:59:11.000Z,29
2018-03-15T04:00:11.000Z,29
2018-03-15T04:01:11.000Z,29
2018-03-15T04:02:11.000Z,29
2018-03-15T04:04:11.000Z,29
2018-03-15T04:05:11.000Z,29
2018-03-15T04:06:11.000Z,29
2018-03-15T04:07:11.000Z,29
2018-03-15T04:08:11.000Z,29
2018-03-15T04:09:11.000Z,29
2018-03-15T04:11:11.000Z,29
2018-03-15T04:12:11.000Z,29
2018-03-15T04:14:11.000Z,29
2018-03-15T04:15:11.000Z,29
2018-03-15T04:16:11.000Z,29
2018-03-15T04:17:11.000Z,29
2018-03-15T04:18:11.000Z,29
2018-03-15T04:19:11.000Z,29
2018-03-15T04:21:11.000Z,29
2018-03-15T04:22:11.000Z,29
2018-03-15T04:23:11.000Z,29
2018-03-15T04:24:11.000Z,29
2018-03-15T04:25:11.000Z,29
2018-03-15T04:27:11.000Z,29
2018-03-15T04:28:11.000Z,29
2018-03-15T04:29:11.000Z,29
2018-03-15T04:30:11.000Z,29
2018-03-15T04:31:11.000Z,29
2018-03-15T04:33:11.000Z,28
2018-03-15T04:34:11.000Z,29
2018-03-15T04:35:11.000Z,29
2018-03-15T04:36:11.000Z,29
2018-03-15T04:37:11.000Z,29
2018-03-15T04:38:11.000Z,29
2018-03-15T04:39:11.000Z,29
2018-03-15T04:40:11.000Z,29
2018-03-15T04:41:11.000Z,29
2018-03-15T04:42:11.000Z,28
2018-03-15T04:43:11.000Z,28
2018-03-15T04:44:11.000Z,29
2018-03-15T04:46:11.000Z,28
2018-03-15T04:47:11.000Z,28
2018-03-15T04:48:11.000Z,29
2018-03-15T04:49:11.000Z,29
2018-03-15T04:50:11.000Z,28
2018-03-15T04:51:11.000Z,28
2018-03-15T04:53:11.000Z,28
2018-03-15T04:54:11.000Z,28
2018-03-15T04:55:11.000Z,29
2018-03-15T04:56:11.000Z,28
2018-03-15T04:57:11.000Z,28
2018-03-15T04:58:11.000Z,28
2018-03-15T04:59:11.000Z,29
2018-03-15T05:00:11.000Z,28
2018-03-15T05:01:11.000Z,29
2018-03-15T05:02:11.000Z,29
2018-03-15T05:03:11.000Z,28
2018-03-15T05:04:11.000Z,29
2018-03-15T05:05:11.000Z,28
2018-03-15T05:06:11.000Z,28
2018-03-15T05:07:11.000Z,28
2018-03-15T05:08:11.000Z,28
2018-03-15T05:09:11.000Z,28
2018-03-15T05:10:11.000Z,28
2018-03-15T05:11:11.000Z,28
2018-03-15T05:12:11.000Z,28
2018-03-15T05:14:11.000Z,28
2018-03-15T05:15:11.000Z,29
2018-03-15T05:16:11.000Z,29
2018-03-15T05:17:11.000Z,29
2018-03-15T05:18:11.000Z,29
2018-03-15T05:19:11.000Z,29
2018-03-15T05:20:11.000Z,28
2018-03-15T05:22:11.000Z,28
2018-03-15T05:23:11.000Z,29
2018-03-15T05:24:11.000Z,29
2018-03-15T05:25:11.000Z,29
2018-03-15T05:26:11.000Z,29
2018-03-15T05:28:11.000Z,28
2018-03-15T05:29:11.000Z,29
2018-03-15T05:30:11.000Z,29
2018-03-15T05:31:11.000Z,28
2018-03-15T05:32:11.000Z,28
2018-03-15T05:33:11.000Z,28
2018-03-15T05:35:11.000Z,28
2018-03-15T05:36:11.000Z,28
2018-03-15T05:38:11.000Z,28
2018-03-15T05:39:11.000Z,28
2018-03-15T05:40:11.000Z,28
2018-03-15T05:41:11.000Z,28
2018-03-15T05:42:11.000Z,28
2018-03-15T05:43:11.000Z,28
2018-03-15T05:44:11.000Z,28
2018-03-15T05:45:11.000Z,28
2018-03-15T05:46:11.000Z,28
2018-03-15T05:47:11.000Z,29
2018-03-15T05:48:11.000Z,28
2018-03-15T05:50:11.000Z,28
2018-03-15T05:51:11.000Z,28
2018-03-15T05:52:11.000Z,28
2018-03-15T05:53:11.000Z,28
2018-03-15T05:54:11.000Z,28
2018-03-15T05:55:11.000Z,28
2018-03-15T05:56:11.000Z,28
2018-03-15T05:57:11.000Z,28
2018-03-15T05:58:11.000Z,28
2018-03-15T05:59:11.000Z,28
2018-03-15T06:00:11.000Z,28
2018-03-15T06:01:11.000Z,28
2018-03-15T06:02:11.000Z,28
2018-03-15T06:03:11.000Z,28
2018-03-15T06:05:11.000Z,28
2018-03-15T06:06:11.000Z,28
2018-03-15T06:07:11.000Z,28
2018-03-15T06:08:11.000Z,28
2018-03-15T06:09:11.000Z,28
2018-03-15T06:10:11.000Z,28
2018-03-15T06:11:11.000Z,28
2018-03-15T06:12:11.000Z,28
2018-03-15T06:13:11.000Z,28
2018-03-15T06:15:11.000Z,27
2018-03-15T06:16:11.000Z,27
2018-03-15T06:17:11.000Z,27
2018-03-15T06:18:11.000Z,27
2018-03-15T06:19:11.000Z,27
2018-03-15T06:20:11.000Z,27
2018-03-15T06:21:11.000Z,27
2018-03-15T06:22:11.000Z,27
2018-03-15T06:23:11.000Z,27
2018-03-15T06:24:11.000Z,27
2018-03-15T06:25:11.000Z,27
2018-03-15T06:26:11.000Z,27
2018-03-15T06:27:11.000Z,27
2018-03-15T06:28:11.000Z,27
2018-03-15T06:29:11.000Z,27
2018-03-15T06:30:11.000Z,27
2018-03-15T06:31:11.000Z,27
2018-03-15T06:32:11.000Z,27
2018-03-15T06:34:11.000Z,27
2018-03-15T06:35:11.000Z,27
2018-03-15T06:36:11.000Z,27
2018-03-15T06:37:11.000Z,27
2018-03-15T06:38:11.000Z,27
2018-03-15T06:39:11.000Z,27
2018-03-15T06:40:11.000Z,27
2018-03-15T06:41:11.000Z,27
2018-03-15T06:43:11.000Z,27
2018-03-15T06:44:11.000Z,27
2018-03-15T06:45:11.000Z,27
2018-03-15T06:46:11.000Z,27
2018-03-15T06:47:11.000Z,27
2018-03-15T06:48:11.000Z,27
2018-03-15T06:49:11.000Z,27
2018-03-15T06:50:11.000Z,27
2018-03-15T06:51:11.000Z,27
2018-03-15T06:52:11.000Z,26
2018-03-15T06:53:11.000Z,26
2018-03-15T06:54:11.000Z,26
2018-03-15T06:56:11.000Z,26
2018-03-15T06:57:11.000Z,26
2018-03-15T06:58:11.000Z,26
2018-03-15T06:59:11.000Z,26
2018-03-15T07:01:11.000Z,26
2018-03-15T07:02:11.000Z,26
2018-03-15T07:03:11.000Z,26
2018-03-15T07:04:11.000Z,26
2018-03-15T07:05:11.000Z,26
2018-03-15T07:06:11.000Z,26
2018-03-15T07:07:11.000Z,26
2018-03-15T07:08:11.000Z,26
2018-03-15T07:09:11.000Z,26
2018-03-15T07:10:11.000Z,26
2018-03-15T07:11:11.000Z,26
2018-03-15T07:12:11.000Z,26
2018-03-15T07:14:11.000Z,25
2018-03-15T07:16:11.000Z,25
2018-03-15T07:17:11.000Z,26
2018-03-15T07:18:11.000Z,26
2018-03-15T07:19:11.000Z,26
2018-03-15T07:20:11.000Z,26
2018-03-15T07:21:11.000Z,26
2018-03-15T07:22:11.000Z,26
2018-03-15T07:23:11.000Z,26
2018-03-15T07:24:11.000Z,25
2018-03-15T07:26:11.000Z,25
2018-03-15T07:27:11.000Z,25
2018-03-15T07:28:11.000Z,25
2018-03-15T07:29:11.000Z,25
2018-03-15T07:30:11.000Z,25
2018-03-15T07:31:11.000Z,25
2018-03-15T07:32:11.000Z,25
2018-03-15T07:35:57.000Z,25
2018-03-15T07:36:57.000Z,25
2018-03-15T07:37:57.000Z,25
2018-03-15T07:38:57.000Z,25
2018-03-15T07:40:57.000Z,24
2018-03-15T07:41:57.000Z,24
2018-03-15T07:42:57.000Z,24
2018-03-15T07:43:57.000Z,24
2018-03-15T07:44:57.000Z,24
2018-03-15T07:45:57.000Z,24
2018-03-15T07:46:57.000Z,24
2018-03-15T07:47:57.000Z,24
2018-03-15T07:49:57.000Z,24
2018-03-15T07:50:57.000Z,24
2018-03-15T07:51:57.000Z,24
2018-03-15T07:52:57.000Z,24
2018-03-15T07:53:57.000Z,24
2018-03-15T07:54:57.000Z,24
2018-03-15T07:55:57.000Z,24
2018-03-15T07:56:57.000Z,24
2018-03-15T07:57:57.000Z,24
2018-03-15T07:58:57.000Z,24
2018-03-15T07:59:57.000Z,24
2018-03-15T08:00:57.000Z,23
2018-03-15T08:01:57.000Z,23
2018-03-15T08:02:57.000Z,23
2018-03-15T08:03:57.000Z,23
2018-03-15T08:05:57.000Z,23
2018-03-15T08:06:57.000Z,23
2018-03-15T08:07:57.000Z,23
2018-03-15T08:08:57.000Z,23
2018-03-15T08:09:57.000Z,23
2018-03-15T08:10:57.000Z,23
2018-03-15T08:11:57.000Z,23
2018-03-15T08:12:57.000Z,23
2018-03-15T08:13:57.000Z,23
2018-03-15T08:15:57.000Z,23
2018-03-15T08:16:57.000Z,23
2018-03-15T08:17:57.000Z,23
2018-03-15T08:18:57.000Z,23
2018-03-15T08:20:57.000Z,23
2018-03-15T08:21:57.000Z,23
2018-03-15T08:22:57.000Z,23
2018-03-15T08:23:57.000Z,23
2018-03-15T08:24:57.000Z,23
2018-03-15T08:25:57.000Z,23
2018-03-15T08:26:57.000Z,23
2018-03-15T08:27:57.000Z,23
2018-03-15T08:28:57.000Z,23
2018-03-15T08:29:57.000Z,23
2018-03-15T08:30:57.000Z,23
2018-03-15T08:31:57.000Z,23
2018-03-15T08:32:57.000Z,23
2018-03-15T08:34:57.000Z,23
2018-03-15T08:35:57.000Z,23
2018-03-15T08:36:57.000Z,23
2018-03-15T08:38:57.000Z,23
2018-03-15T08:39:57.000Z,23
2018-03-15T08:40:57.000Z,23
2018-03-15T08:41:57.000Z,23
2018-03-15T08:42:57.000Z,23
2018-03-15T08:43:57.000Z,23
2018-03-15T08:44:57.000Z,23
2018-03-15T08:46:57.000Z,23
2018-03-15T08:47:57.000Z,23
2018-03-15T08:48:57.000Z,23
2018-03-15T08:49:57.000Z,23
2018-03-15T08:50:57.000Z,23
2018-03-15T08:51:57.000Z,23
2018-03-15T08:52:57.000Z,23
2018-03-15T08:53:57.000Z,23
2018-03-15T08:55:57.000Z,23
2018-03-15T08:57:57.000Z,23
2018-03-15T08:58:57.000Z,23
2018-03-15T08:59:57.000Z,23
2018-03-15T09:00:57.000Z,23
2018-03-15T09:01:57.000Z,23
2018-03-15T09:02:57.000Z,23
2018-03-15T09:03:57.000Z,23
2018-03-15T09:05:57.000Z,23
2018-03-15T09:06:57.000Z,23
2018-03-15T09:07:57.000Z,23
2018-03-15T09:08:57.000Z,23
2018-03-15T09:09:57.000Z,23
2018-03-15T09:10:57.000Z,23
2018-03-15T09:11:57.000Z,23
2018-03-15T09:12:57.000Z,23
2018-03-15T09:13:57.000Z,23
2018-03-15T09:14:57.000Z,22
2018-03-15T09:15:57.000Z,23
2018-03-15T09:17:57.000Z,23
2018-03-15T09:18:57.000Z,23
2018-03-15T09:19:57.000Z,23
2018-03-15T09:20:57.000Z,23
2018-03-15T09:21:57.000Z,23
2018-03-15T09:22:57.000Z,23
2018-03-15T09:23:57.000Z,23
2018-03-15T09:24:57.000Z,23
2018-03-15T09:25:57.000Z,23
2018-03-15T09:26:57.000Z,23
2018-03-15T09:27:57.000Z,23
2018-03-15T09:28:57.000Z,23
2018-03-15T09:30:57.000Z,23
2018-03-15T09:31:57.000Z,23
2018-03-15T09:32:57.000Z,23
2018-03-15T09:33:57.000Z,23
2018-03-15T09:34:57.000Z,23
2018-03-15T09:35:57.000Z,23
2018-03-15T09:36:57.000Z,23
2018-03-15T09:37:57.000Z,23
2018-03-15T09:38:57.000Z,23
2018-03-15T09:39:57.000Z,23
2018-03-15T09:41:57.000Z,23
2018-03-15T09:42:57.000Z,23
2018-03-15T09:44:57.000Z,23
2018-03-15T09:45:57.000Z,23
2018-03-15T09:46:57.000Z,23
2018-03-15T09:47:57.000Z,23
2018-03-15T09:48:57.000Z,24
2018-03-15T09:49:57.000Z,24
2018-03-15T09:50:57.000Z,24
2018-03-15T09:51:57.000Z,24
2018-03-15T09:52:57.000Z,24
2018-03-15T09:53:57.000Z,24
2018-03-15T09:54:57.000Z,24
2018-03-15T09:55:57.000Z,23
2018-03-15T09:56:57.000Z,24
2018-03-15T09:57:57.000Z,24
2018-03-15T09:59:57.000Z,23
2018-03-15T10:00:57.000Z,24
2018-03-15T10:01:57.000Z,23
2018-03-15T10:02:57.000Z,24
2018-03-15T10:03:57.000Z,24
2018-03-15T10:04:57.000Z,23
2018-03-15T10:05:57.000Z,23
2018-03-15T10:06:57.000Z,23
2018-03-15T10:07:57.000Z,23
2018-03-15T10:08:57.000Z,23
2018-03-15T10:10:57.000Z,23
2018-03-15T10:11:57.000Z,23
2018-03-15T10:13:57.000Z,23
2018-03-15T10:14:57.000Z,23
2018-03-15T10:15:57.000Z,23
2018-03-15T10:16:57.000Z,23
2018-03-15T10:17:57.000Z,23
2018-03-15T10:18:57.000Z,23
2018-03-15T10:19:57.000Z,23
2018-03-15T10:20:57.000Z,23
2018-03-15T10:22:57.000Z,23
2018-03-15T10:23:57.000Z,23
2018-03-15T10:24:57.000Z,23
2018-03-15T10:25:57.000Z,23
2018-03-15T10:26:57.000Z,23
2018-03-15T10:27:57.000Z,23
2018-03-15T10:28:57.000Z,23
2018-03-15T10:29:57.000Z,23
2018-03-15T10:30:57.000Z,23
2018-03-15T10:31:57.000Z,23
2018-03-15T10:32:57.000Z,23
2018-03-15T10:33:57.000Z,23
2018-03-15T10:34:57.000Z,23
2018-03-15T10:35:57.000Z,23
2018-03-15T10:36:57.000Z,23
2018-03-15T10:37:57.000Z,23
2018-03-15T10:38:57.000Z,23
2018-03-15T10:40:57.000Z,22
2018-03-15T10:41:57.000Z,22
2018-03-15T10:42:57.000Z,22
2018-03-15T10:43:57.000Z,22
2018-03-15T10:44:57.000Z,22
2018-03-15T10:45:57.000Z,22
2018-03-15T10:47:57.000Z,21
2018-03-15T10:48:57.000Z,21
2018-03-15T10:49:57.000Z,21
2018-03-15T10:50:57.000Z,21
2018-03-15T10:51:57.000Z,21
2018-03-15T10:52:57.000Z,21
2018-03-15T10:54:57.000Z,21
2018-03-15T10:56:57.000Z,21
2018-03-15T10:58:57.000Z,21
2018-03-15T10:59:57.000Z,21
2018-03-15T11:00:57.000Z,21
2018-03-15T11:01:57.000Z,21
2018-03-15T11:02:57.000Z,21
2018-03-15T11:03:57.000Z,21
2018-03-15T11:04:57.000Z,21
2018-03-15T11:05:57.000Z,21
2018-03-15T11:07:57.000Z,21
2018-03-15T11:08:57.000Z,21
2018-03-15T11:09:57.000Z,21
2018-03-15T11:11:57.000Z,21
2018-03-15T11:13:57.000Z,21
2018-03-15T11:14:57.000Z,22
2018-03-15T11:15:57.000Z,22
2018-03-15T11:16:57.000Z,22
2018-03-15T11:17:57.000Z,22
2018-03-15T11:19:57.000Z,22
2018-03-15T11:21:57.000Z,22
2018-03-15T11:22:57.000Z,22
2018-03-15T11:23:57.000Z,22
2018-03-15T11:24:57.000Z,22
2018-03-15T11:25:57.000Z,22
2018-03-15T11:26:57.000Z,22
2018-03-15T11:27:57.000Z,22
2018-03-15T11:28:57.000Z,22
2018-03-15T11:29:57.000Z,22
2018-03-15T11:30:57.000Z,22
2018-03-15T11:31:57.000Z,22
2018-03-15T11:32:57.000Z,22
2018-03-15T11:33:57.000Z,22
2018-03-15T11:35:57.000Z,22
2018-03-15T11:36:57.000Z,22
2018-03-15T11:37:57.000Z,22
2018-03-15T11:39:57.000Z,22
2018-03-15T11:40:57.000Z,22
2018-03-15T11:41:57.000Z,22
2018-03-15T11:42:57.000Z,22
2018-03-15T11:43:57.000Z,22
2018-03-15T11:44:57.000Z,22
2018-03-15T11:45:57.000Z,22
2018-03-15T11:46:57.000Z,22
2018-03-15T11:47:57.000Z,22
2018-03-15T11:48:57.000Z,22
2018-03-15T11:49:57.000Z,22
2018-03-15T11:51:57.000Z,22
2018-03-15T11:52:57.000Z,22
2018-03-15T11:54:57.000Z,22
2018-03-15T11:55:57.000Z,22
2018-03-15T11:56:57.000Z,22
2018-03-15T11:58:57.000Z,21
2018-03-15T11:59:57.000Z,22
2018-03-15T12:00:57.000Z,21
2018-03-15T12:01:57.000Z,21
2018-03-15T12:02:57.000Z,21
2018-03-15T12:03:57.000Z,21
2018-03-15T12:04:57.000Z,21
2018-03-15T12:05:57.000Z,21
2018-03-15T12:06:57.000Z,21
2018-03-15T12:07:57.000Z,21
2018-03-15T12:08:57.000Z,21
2018-03-15T12:09:57.000Z,21
2018-03-15T12:10:57.000Z,21
2018-03-15T12:11:57.000Z,21
2018-03-15T12:12:57.000Z,21
2018-03-15T12:13:57.000Z,21
2018-03-15T12:14:57.000Z,21
2018-03-15T12:15:57.000Z,21
2018-03-15T12:17:57.000Z,21
2018-03-15T12:18:57.000Z,21
2018-03-15T12:19:57.000Z,21
2018-03-15T12:21:57.000Z,21
2018-03-15T12:22:57.000Z,21
2018-03-15T12:23:57.000Z,21
2018-03-15T12:24:57.000Z,21
2018-03-15T12:25:57.000Z,21
2018-03-15T12:26:57.000Z,21
2018-03-15T12:27:57.000Z,21
2018-03-15T12:28:57.000Z,21
2018-03-15T12:30:57.000Z,21
2018-03-15T12:31:57.000Z,21
2018-03-15T12:32:57.000Z,21
2018-03-15T12:33:58.000Z,21
2018-03-15T12:34:58.000Z,21
2018-03-15T12:36:58.000Z,21
2018-03-15T12:37:58.000Z,21
2018-03-15T12:38:58.000Z,21
2018-03-15T12:39:58.000Z,21
2018-03-15T12:40:58.000Z,21
2018-03-15T12:41:58.000Z,21
2018-03-15T12:42:58.000Z,22
2018-03-15T12:44:58.000Z,22
2018-03-15T12:45:58.000Z,22
2018-03-15T12:46:58.000Z,22
2018-03-15T12:47:58.000Z,22
2018-03-15T12:48:58.000Z,22
2018-03-15T12:49:58.000Z,22
2018-03-15T12:51:58.000Z,22
2018-03-15T12:52:58.000Z,22
2018-03-15T12:53:58.000Z,22
2018-03-15T12:54:58.000Z,22
2018-03-15T12:55:58.000Z,22
2018-03-15T12:56:58.000Z,22
2018-03-15T12:57:58.000Z,22
2018-03-15T12:58:58.000Z,22
2018-03-15T12:59:58.000Z,22
2018-03-15T13:00:58.000Z,22
2018-03-15T13:01:58.000Z,22
2018-03-15T13:03:58.000Z,22
2018-03-15T13:05:58.000Z,22
2018-03-15T13:06:58.000Z,23
2018-03-15T13:07:58.000Z,23
2018-03-15T13:08:58.000Z,23
2018-03-15T13:09:58.000Z,23
2018-03-15T13:11:58.000Z,23
2018-03-15T13:13:58.000Z,23
2018-03-15T13:14:58.000Z,23
2018-03-15T13:15:58.000Z,23
2018-03-15T13:17:58.000Z,23
2018-03-15T13:18:58.000Z,23
2018-03-15T13:19:58.000Z,23
2018-03-15T13:20:58.000Z,23
2018-03-15T13:21:58.000Z,23
2018-03-15T13:22:58.000Z,23
2018-03-15T13:24:58.000Z,23
2018-03-15T13:25:58.000Z,23
2018-03-15T13:26:58.000Z,23
2018-03-15T13:27:58.000Z,23
2018-03-15T13:28:58.000Z,23
2018-03-15T13:29:58.000Z,23
2018-03-15T13:30:58.000Z,23
2018-03-15T13:31:58.000Z,23
2018-03-15T13:33:58.000Z,23
2018-03-15T13:34:58.000Z,23
2018-03-15T13:35:58.000Z,23
2018-03-15T13:36:57.000Z,23
2018-03-15T13:37:57.000Z,23
2018-03-15T13:38:57.000Z,23
2018-03-15T13:40:57.000Z,23
2018-03-15T13:41:57.000Z,23
2018-03-15T13:42:57.000Z,23
2018-03-15T13:43:57.000Z,23
2018-03-15T13:44:57.000Z,23
2018-03-15T13:45:57.000Z,23
2018-03-15T13:46:57.000Z,23
2018-03-15T13:47:57.000Z,23
2018-03-15T13:49:57.000Z,23
2018-03-15T13:50:57.000Z,23
2018-03-15T13:51:57.000Z,23
2018-03-15T13:52:57.000Z,23
2018-03-15T13:53:57.000Z,23
2018-03-15T13:54:57.000Z,23
2018-03-15T13:56:57.000Z,23
2018-03-15T13:57:57.000Z,23
2018-03-15T13:59:57.000Z,23
2018-03-15T14:00:57.000Z,23
2018-03-15T14:01:57.000Z,23
2018-03-15T14:02:57.000Z,24
2018-03-15T14:03:57.000Z,24
2018-03-15T14:04:57.000Z,24
2018-03-15T14:05:57.000Z,24
2018-03-15T14:06:57.000Z,24
2018-03-15T14:07:57.000Z,23
2018-03-15T14:08:57.000Z,23
2018-03-15T14:09:57.000Z,23
2018-03-15T14:10:57.000Z,23
2018-03-15T14:11:57.000Z,23
2018-03-15T14:12:57.000Z,23
2018-03-15T14:13:57.000Z,23
2018-03-15T14:14:57.000Z,23
2018-03-15T14:15:57.000Z,23
2018-03-15T14:16:57.000Z,23
2018-03-15T14:17:57.000Z,23
2018-03-15T14:18:57.000Z,23
2018-03-15T14:20:57.000Z,23
2018-03-15T14:21:57.000Z,23
2018-03-15T14:22:57.000Z,23
2018-03-15T14:24:57.000Z,23
2018-03-15T14:25:57.000Z,23
2018-03-15T14:26:57.000Z,23
2018-03-15T14:27:57.000Z,23
2018-03-15T14:28:57.000Z,23
2018-03-15T14:30:57.000Z,23
2018-03-15T14:31:57.000Z,23
2018-03-15T14:32:57.000Z,23
2018-03-15T14:33:57.000Z,23
2018-03-15T14:34:57.000Z,23
2018-03-15T14:35:57.000Z,23
2018-03-15T14:36:57.000Z,23
2018-03-15T14:37:57.000Z,23
2018-03-15T14:38:57.000Z,23
2018-03-15T14:39:57.000Z,23
2018-03-15T14:40:57.000Z,23
2018-03-15T14:41:57.000Z,23
2018-03-15T14:42:57.000Z,23
2018-03-15T14:43:57.000Z,23
2018-03-15T14:44:57.000Z,23
2018-03-15T14:45:57.000Z,23
2018-03-15T14:46:57.000Z,23
2018-03-15T14:47:57.000Z,23
2018-03-15T14:48:57.000Z,23
2018-03-15T14:49:57.000Z,23
2018-03-15T14:50:57.000Z,23
2018-03-15T14:52:57.000Z,23
2018-03-15T14:53:57.000Z,23
2018-03-15T14:54:57.000Z,23
2018-03-15T14:56:57.000Z,23
2018-03-15T14:57:57.000Z,23
2018-03-15T14:58:57.000Z,23
2018-03-15T14:59:57.000Z,23
2018-03-15T15:01:57.000Z,23
2018-03-15T15:02:57.000Z,23
2018-03-15T15:04:57.000Z,23
2018-03-15T15:05:57.000Z,23
2018-03-15T15:06:57.000Z,23
2018-03-15T15:07:57.000Z,23
2018-03-15T15:08:57.000Z,23
2018-03-15T15:09:57.000Z,23
2018-03-15T15:10:57.000Z,23
2018-03-15T15:11:57.000Z,23
2018-03-15T15:12:57.000Z,23
2018-03-15T15:13:57.000Z,23
2018-03-15T15:14:57.000Z,23
2018-03-15T15:15:57.000Z,23
2018-03-15T15:17:57.000Z,23
2018-03-15T15:18:57.000Z,23
2018-03-15T15:20:57.000Z,23
2018-03-15T15:21:57.000Z,24
2018-03-15T15:22:57.000Z,24
2018-03-15T15:23:57.000Z,24
2018-03-15T15:24:57.000Z,24
2018-03-15T15:25:57.000Z,24
2018-03-15T15:26:57.000Z,24
2018-03-15T15:27:57.000Z,24
2018-03-15T15:28:57.000Z,24
2018-03-15T15:30:57.000Z,24
2018-03-15T15:31:57.000Z,24
2018-03-15T15:33:57.000Z,24
2018-03-15T15:34:57.000Z,24
2018-03-15T15:36:57.000Z,24
2018-03-15T15:37:57.000Z,24
2018-03-15T15:38:57.000Z,24
2018-03-15T15:40:57.000Z,24
2018-03-15T15:42:57.000Z,24
2018-03-15T15:43:57.000Z,24
2018-03-15T15:44:57.000Z,24
2018-03-15T15:45:57.000Z,24
2018-03-15T15:46:57.000Z,24
2018-03-15T15:48:57.000Z,24
2018-03-15T15:49:57.000Z,24
2018-03-15T15:50:57.000Z,24
2018-03-15T15:51:57.000Z,25
2018-03-15T15:52:57.000Z,25
2018-03-15T15:53:57.000Z,24
2018-03-15T15:54:57.000Z,24
2018-03-15T15:56:57.000Z,24
2018-03-15T15:57:57.000Z,24
2018-03-15T15:58:57.000Z,24
2018-03-15T15:59:57.000Z,24
2018-03-15T16:01:57.000Z,24
2018-03-15T16:02:57.000Z,25
2018-03-15T16:03:57.000Z,25
2018-03-15T16:05:57.000Z,25
2018-03-15T16:06:57.000Z,25
2018-03-15T16:08:57.000Z,25
2018-03-15T16:10:57.000Z,25
2018-03-15T16:11:57.000Z,25
2018-03-15T16:12:57.000Z,25